Time;durP1;ratioP1;P1;durP2;ratioP2;P2;SDS_P1;SDS_P2;PMS_P1;PMS_P2;Temp;Humidity;BMP_temperature;BMP_pressure;BME280_temperature;BME280_humidity;BME280_pressure;Samples;Min_cycle;Max_cycle;Signal;HPM_P1;HPM_P2
2021/05/19 00:00:49;;;;;;;5.83;4.20;;;9.50;99.90;;;;;;5037320;28;20960;-70
2021/05/19 00:03:16;;;;;;;7.50;4.70;;;9.40;99.90;;;;;;5038392;28;20496;-70
2021/05/19 00:05:43;;;;;;;8.47;5.10;;;9.40;99.90;;;;;;5030180;28;20583;-70
2021/05/19 00:08:10;;;;;;;7.67;6.17;;;9.40;99.90;;;;;;5033697;28;20887;-70
2021/05/19 00:10:37;;;;;;;8.07;5.90;;;9.30;99.90;;;;;;5024174;28;20953;-70
2021/05/19 00:13:03;;;;;;;5.70;4.40;;;9.20;99.90;;;;;;5032999;28;20997;-70
2021/05/19 00:15:30;;;;;;;6.77;4.70;;;9.20;99.90;;;;;;5033644;28;20807;-70
2021/05/19 00:18:01;;;;;;;7.33;5.87;;;9.20;99.90;;;;;;5030662;28;20502;-70
2021/05/19 00:20:28;;;;;;;9.10;6.33;;;9.20;99.90;;;;;;5034945;28;20603;-70
2021/05/19 00:22:55;;;;;;;11.13;7.40;;;9.20;99.90;;;;;;5036364;28;20546;-70
2021/05/19 00:25:22;;;;;;;9.90;7.00;;;9.20;99.90;;;;;;5028651;28;20466;-70
2021/05/19 00:27:48;;;;;;;8.63;6.33;;;9.20;99.90;;;;;;5033243;28;21091;-70
2021/05/19 00:30:18;;;;;;;8.17;6.27;;;9.10;99.90;;;;;;5038068;28;20471;-70
2021/05/19 00:32:45;;;;;;;6.90;5.17;;;8.90;99.90;;;;;;5032539;28;20514;-70
2021/05/19 00:35:12;;;;;;;8.63;6.00;;;8.90;99.90;;;;;;5031160;28;20913;-70
2021/05/19 00:37:38;;;;;;;9.00;6.37;;;9.00;99.90;;;;;;5034526;28;20467;-70
2021/05/19 00:40:07;;;;;;;9.63;5.80;;;9.00;99.90;;;;;;5032748;28;20493;-70
2021/05/19 00:42:34;;;;;;;11.83;7.73;;;9.00;99.90;;;;;;5030188;28;20860;-70
2021/05/19 00:45:05;;;;;;;11.40;5.93;;;9.10;99.90;;;;;;5032526;28;20554;-70
2021/05/19 00:47:33;;;;;;;8.17;6.77;;;9.10;99.90;;;;;;5037020;28;20870;-70
2021/05/19 00:49:59;;;;;;;10.00;7.10;;;9.10;99.90;;;;;;5029290;28;20453;-70
2021/05/19 00:52:26;;;;;;;7.47;5.90;;;9.00;99.90;;;;;;5029897;28;20573;-70
2021/05/19 00:54:52;;;;;;;10.03;6.73;;;9.00;99.90;;;;;;5028078;28;20492;-70
2021/05/19 00:57:20;;;;;;;11.97;6.80;;;9.00;99.90;;;;;;5032233;28;20539;-70
2021/05/19 00:59:48;;;;;;;12.13;8.47;;;8.90;99.90;;;;;;5026241;28;20463;-70
2021/05/19 01:02:14;;;;;;;13.20;7.83;;;9.00;99.90;;;;;;5037119;28;20423;-70
2021/05/19 01:04:41;;;;;;;9.30;7.50;;;8.50;99.90;;;;;;5051559;28;20457;-71
2021/05/19 01:07:16;;;;;;;12.33;6.30;;;8.30;99.90;;;;;;5059352;28;20506;-71
2021/05/19 01:09:42;;;;;;;8.60;6.13;;;8.30;99.90;;;;;;5055393;28;20430;-70
2021/05/19 01:12:11;;;;;;;8.83;6.37;;;8.50;99.90;;;;;;5039658;28;21007;-71
2021/05/19 01:14:39;;;;;;;6.50;5.90;;;8.60;99.90;;;;;;5031754;28;20558;-71
2021/05/19 01:17:05;;;;;;;11.83;6.67;;;8.60;99.90;;;;;;5034871;28;20521;-70
2021/05/19 01:19:34;;;;;;;11.73;6.97;;;8.40;99.90;;;;;;5033479;28;20555;-71
2021/05/19 01:22:08;;;;;;;10.70;6.37;;;8.50;99.90;;;;;;5036038;28;20474;-70
2021/05/19 01:24:35;;;;;;;9.87;6.20;;;8.40;99.90;;;;;;5039697;28;20508;-70
2021/05/19 01:27:01;;;;;;;8.17;5.57;;;8.40;99.90;;;;;;5032670;28;20624;-70
2021/05/19 01:29:28;;;;;;;10.23;7.10;;;8.50;99.90;;;;;;5040795;28;20543;-70
2021/05/19 01:31:55;;;;;;;7.97;6.27;;;8.50;99.90;;;;;;5036958;28;20488;-70
2021/05/19 01:34:21;;;;;;;9.60;6.63;;;8.40;99.90;;;;;;5028058;28;20965;-70
2021/05/19 01:36:48;;;;;;;6.57;5.07;;;8.50;99.90;;;;;;5029801;28;21123;-70
2021/05/19 01:39:15;;;;;;;8.60;4.67;;;8.50;99.90;;;;;;5026358;28;20490;-69
2021/05/19 01:41:42;;;;;;;6.00;5.40;;;8.50;99.90;;;;;;5026179;28;25986;-70
2021/05/19 01:44:10;;;;;;;9.37;5.63;;;8.60;99.90;;;;;;5030285;28;20498;-70
2021/05/19 01:46:37;;;;;;;7.67;5.87;;;8.50;99.90;;;;;;5028853;28;20552;-70
2021/05/19 01:49:06;;;;;;;9.20;5.67;;;8.50;99.90;;;;;;5029546;28;26991;-70
2021/05/19 01:51:34;;;;;;;9.10;5.70;;;8.40;99.90;;;;;;5031285;28;20476;-70
2021/05/19 01:54:01;;;;;;;9.60;4.90;;;8.50;99.90;;;;;;5032781;28;21673;-70
2021/05/19 01:56:29;;;;;;;8.70;5.50;;;8.20;99.90;;;;;;5028033;28;20463;-70
2021/05/19 01:58:57;;;;;;;11.67;8.30;;;7.90;99.90;;;;;;5031769;28;20525;-70
2021/05/19 02:01:23;;;;;;;8.40;5.80;;;7.70;99.90;;;;;;5030997;28;20566;-70
2021/05/19 02:03:50;;;;;;;13.10;8.37;;;7.60;99.90;;;;;;5028216;28;20483;-70
2021/05/19 02:06:17;;;;;;;13.67;8.77;;;7.60;99.90;;;;;;5036584;28;20520;-70
2021/05/19 02:08:43;;;;;;;12.13;6.73;;;7.60;99.90;;;;;;5035119;28;20431;-69
2021/05/19 02:11:10;;;;;;;11.50;7.37;;;7.90;99.90;;;;;;5029162;28;20512;-69
2021/05/19 02:13:37;;;;;;;12.27;5.63;;;8.10;99.90;;;;;;5027953;28;20922;-69
2021/05/19 02:16:04;;;;;;;9.97;6.20;;;8.10;99.90;;;;;;5037744;28;20452;-70
2021/05/19 02:18:30;;;;;;;10.30;7.67;;;8.30;99.90;;;;;;5038411;28;20518;-70
2021/05/19 02:21:02;;;;;;;11.07;7.10;;;8.30;99.90;;;;;;5046941;28;20462;-70
2021/05/19 02:23:28;;;;;;;15.17;8.63;;;8.30;99.90;;;;;;5033041;28;20581;-70
2021/05/19 02:25:54;;;;;;;7.80;5.80;;;8.30;99.90;;;;;;5038113;28;20494;-70
2021/05/19 02:28:21;;;;;;;14.80;8.97;;;8.30;99.90;;;;;;5033377;28;20898;-70
2021/05/19 02:30:48;;;;;;;16.17;9.00;;;8.20;99.90;;;;;;5035758;28;20442;-70
2021/05/19 02:33:20;;;;;;;12.40;7.43;;;8.10;99.90;;;;;;5036078;28;20566;-70
2021/05/19 02:35:46;;;;;;;12.00;7.27;;;8.10;99.90;;;;;;5039947;28;20463;-70
2021/05/19 02:38:13;;;;;;;11.50;7.43;;;8.10;99.90;;;;;;5037596;28;20546;-70
2021/05/19 02:40:39;;;;;;;11.17;6.73;;;8.20;99.90;;;;;;5035971;28;20499;-70
2021/05/19 02:43:06;;;;;;;13.17;7.83;;;8.20;99.90;;;;;;5029852;28;20544;-69
2021/05/19 02:45:32;;;;;;;14.50;7.77;;;8.10;99.90;;;;;;5035882;28;20547;-69
2021/05/19 02:47:59;;;;;;;14.23;6.80;;;8.10;99.90;;;;;;5030490;28;20554;-70
2021/05/19 02:50:26;;;;;;;11.90;8.77;;;8.20;99.90;;;;;;5035542;28;20547;-70
2021/05/19 02:52:52;;;;;;;17.77;10.07;;;8.10;99.90;;;;;;5034357;28;20563;-70
2021/05/19 02:55:19;;;;;;;10.83;7.37;;;8.00;99.90;;;;;;5050566;28;20427;-70
2021/05/19 02:57:45;;;;;;;14.97;7.83;;;8.00;99.90;;;;;;5056452;28;20547;-70
2021/05/19 03:00:13;;;;;;;14.20;8.07;;;8.10;99.90;;;;;;5060517;28;20450;-70
2021/05/19 03:02:39;;;;;;;14.20;7.13;;;8.10;99.90;;;;;;5037614;28;21937;-69
2021/05/19 03:05:08;;;;;;;11.63;7.27;;;8.10;99.90;;;;;;5040318;28;20499;-70
2021/05/19 03:07:35;;;;;;;11.20;6.80;;;8.00;99.90;;;;;;5039149;28;20459;-70
2021/05/19 03:10:04;;;;;;;11.50;6.23;;;8.00;99.90;;;;;;5035772;28;20502;-69
2021/05/19 03:12:30;;;;;;;25.63;8.03;;;8.00;99.90;;;;;;5028214;28;20479;-69
2021/05/19 03:14:56;;;;;;;10.57;6.07;;;8.00;99.90;;;;;;5032903;28;20487;-69
2021/05/19 03:17:23;;;;;;;15.47;7.00;;;8.00;99.90;;;;;;5035105;28;20470;-69
2021/05/19 03:19:49;;;;;;;16.60;7.87;;;8.00;99.90;;;;;;5046854;28;20835;-69
2021/05/19 03:22:17;;;;;;;13.07;8.50;;;8.00;99.90;;;;;;5040394;28;20829;-69
2021/05/19 03:24:43;;;;;;;16.63;9.47;;;8.00;99.90;;;;;;5040503;28;20493;-69
2021/05/19 03:27:10;;;;;;;13.43;9.03;;;8.00;99.90;;;;;;5034634;28;20629;-69
2021/05/19 03:29:36;;;;;;;17.30;8.20;;;8.10;99.90;;;;;;5029989;28;20455;-69
2021/05/19 03:32:03;;;;;;;8.00;6.40;;;8.20;99.90;;;;;;5036231;28;20557;-69
2021/05/19 03:34:29;;;;;;;17.43;9.77;;;8.20;99.90;;;;;;5036104;28;20515;-69
2021/05/19 03:36:57;;;;;;;12.50;7.00;;;8.30;99.90;;;;;;5031649;28;20564;-68
2021/05/19 03:39:24;;;;;;;22.50;8.80;;;8.30;99.90;;;;;;5029278;28;20569;-69
2021/05/19 03:41:51;;;;;;;15.93;8.80;;;8.30;99.90;;;;;;5030025;28;20459;-69
2021/05/19 03:44:17;;;;;;;16.00;8.53;;;8.50;99.90;;;;;;5034065;28;20480;-70
2021/05/19 03:46:44;;;;;;;14.93;9.30;;;8.40;99.90;;;;;;5033268;28;20520;-69
2021/05/19 03:49:10;;;;;;;17.90;9.53;;;8.50;99.90;;;;;;5029273;28;20427;-69
2021/05/19 03:51:37;;;;;;;18.83;10.53;;;8.60;99.90;;;;;;5032750;28;20677;-70
2021/05/19 03:54:04;;;;;;;16.37;8.50;;;8.70;99.90;;;;;;5028611;28;20732;-69
2021/05/19 03:56:32;;;;;;;18.53;10.10;;;8.90;99.90;;;;;;5033483;28;20462;-69
2021/05/19 03:58:58;;;;;;;13.40;7.70;;;9.00;99.90;;;;;;5041796;28;20451;-69
2021/05/19 04:01:25;;;;;;;17.73;10.50;;;9.00;99.90;;;;;;5041281;28;20488;-69
2021/05/19 04:03:51;;;;;;;19.50;11.70;;;9.00;99.90;;;;;;5042922;28;20515;-70
2021/05/19 04:06:21;;;;;;;14.03;8.17;;;9.10;99.90;;;;;;5040355;28;20447;-69
2021/05/19 04:08:48;;;;;;;14.90;9.33;;;9.00;99.90;;;;;;5038179;28;20509;-68
2021/05/19 04:11:14;;;;;;;20.67;10.93;;;9.20;99.90;;;;;;5036200;28;20444;-70
2021/05/19 04:13:42;;;;;;;17.10;10.10;;;9.10;99.90;;;;;;5043009;28;20575;-69
2021/05/19 04:16:10;;;;;;;16.97;8.93;;;8.90;99.90;;;;;;5038259;28;20979;-69
2021/05/19 04:18:37;;;;;;;16.13;11.20;;;9.00;99.90;;;;;;5033666;28;21195;-69
2021/05/19 04:21:04;;;;;;;22.63;11.17;;;9.00;99.90;;;;;;5044538;28;20467;-69
2021/05/19 04:23:30;;;;;;;18.80;10.20;;;9.00;99.90;;;;;;5034803;28;20551;-69
2021/05/19 04:25:57;;;;;;;22.70;13.90;;;9.00;99.90;;;;;;5038928;28;20509;-69
2021/05/19 04:28:24;;;;;;;23.83;13.80;;;9.10;99.90;;;;;;5031468;28;20583;-68
2021/05/19 04:30:51;;;;;;;19.60;10.87;;;9.20;99.90;;;;;;5037252;28;20857;-69
2021/05/19 04:33:18;;;;;;;14.53;8.90;;;9.20;99.90;;;;;;5036503;28;20540;-69
2021/05/19 04:35:45;;;;;;;21.63;12.50;;;9.30;99.90;;;;;;5038979;28;20484;-69
2021/05/19 04:38:12;;;;;;;20.23;10.63;;;9.40;99.90;;;;;;5035999;28;20506;-69
2021/05/19 04:40:39;;;;;;;26.17;15.07;;;9.50;99.90;;;;;;5031490;28;20464;-69
2021/05/19 04:43:08;;;;;;;19.50;13.13;;;9.60;99.90;;;;;;5040167;28;20479;-69
2021/05/19 04:45:35;;;;;;;25.50;12.50;;;9.60;99.90;;;;;;5028551;28;20791;-69
2021/05/19 04:48:02;;;;;;;20.50;11.43;;;9.70;99.90;;;;;;5033351;28;20555;-69
2021/05/19 04:50:29;;;;;;;20.83;11.57;;;9.70;99.90;;;;;;5037977;28;20446;-70
2021/05/19 04:52:55;;;;;;;22.53;13.20;;;9.70;99.90;;;;;;5032877;28;20515;-70
2021/05/19 04:55:22;;;;;;;22.00;14.00;;;9.70;99.90;;;;;;5048474;28;21116;-70
2021/05/19 04:57:49;;;;;;;20.50;12.07;;;9.70;99.90;;;;;;5036840;28;20468;-69
2021/05/19 05:00:17;;;;;;;23.87;13.17;;;9.80;99.90;;;;;;5045019;28;20521;-69
2021/05/19 05:02:43;;;;;;;20.83;13.17;;;9.90;99.90;;;;;;5044014;28;20472;-70
2021/05/19 05:05:12;;;;;;;26.90;13.90;;;10.10;99.90;;;;;;5045109;28;20944;-70
2021/05/19 05:07:38;;;;;;;20.53;11.63;;;10.20;99.90;;;;;;5045127;28;20491;-70
2021/05/19 05:10:07;;;;;;;22.27;11.97;;;10.20;99.90;;;;;;5043295;28;20466;-70
2021/05/19 05:12:34;;;;;;;19.00;13.40;;;10.20;99.90;;;;;;5040986;28;20476;-70
2021/05/19 05:15:00;;;;;;;20.27;11.10;;;10.20;99.90;;;;;;5047433;28;20858;-70
2021/05/19 05:17:27;;;;;;;20.40;13.90;;;10.50;99.90;;;;;;5045877;28;21017;-70
2021/05/19 05:19:53;;;;;;;24.27;12.20;;;10.50;99.90;;;;;;5051238;28;20492;-70
2021/05/19 05:22:20;;;;;;;20.00;10.70;;;11.00;99.90;;;;;;5046713;28;20470;-70
2021/05/19 05:24:47;;;;;;;21.63;13.00;;;11.30;99.90;;;;;;5041150;28;20995;-70
2021/05/19 05:27:13;;;;;;;15.47;10.23;;;11.80;99.90;;;;;;5041620;28;20495;-70
2021/05/19 05:29:40;;;;;;;15.30;10.37;;;12.10;99.90;;;;;;5041586;28;20555;-70
2021/05/19 05:32:07;;;;;;;14.37;8.73;;;12.50;99.90;;;;;;5044881;28;20602;-69
2021/05/19 05:34:33;;;;;;;17.43;13.07;;;12.60;99.90;;;;;;5043865;28;20597;-70
2021/05/19 05:37:00;;;;;;;14.27;9.50;;;12.60;99.90;;;;;;5036638;28;20456;-69
2021/05/19 05:39:28;;;;;;;17.23;9.47;;;12.70;99.90;;;;;;5042204;28;20466;-70
2021/05/19 05:41:54;;;;;;;15.53;8.97;;;12.70;99.90;;;;;;5046369;28;20960;-70
2021/05/19 05:44:21;;;;;;;15.40;8.00;;;12.60;99.90;;;;;;5037096;28;20514;-70
2021/05/19 05:46:48;;;;;;;12.83;9.83;;;12.40;99.90;;;;;;5045703;28;20530;-71
2021/05/19 05:49:14;;;;;;;14.50;9.27;;;12.20;99.90;;;;;;5042763;28;20455;-70
2021/05/19 05:51:41;;;;;;;17.13;11.97;;;12.40;99.90;;;;;;5046374;28;20568;-70
2021/05/19 05:54:07;;;;;;;16.53;10.20;;;12.30;99.90;;;;;;5041099;28;20844;-70
2021/05/19 05:56:35;;;;;;;13.10;8.83;;;11.90;99.90;;;;;;5046677;28;20486;-70
2021/05/19 05:59:01;;;;;;;17.40;11.00;;;12.00;99.90;;;;;;5037412;28;20570;-69
2021/05/19 06:01:27;;;;;;;14.57;9.27;;;12.00;99.90;;;;;;5033166;28;20533;-69
2021/05/19 06:03:54;;;;;;;15.00;9.70;;;12.00;99.90;;;;;;5035979;28;20587;-70
2021/05/19 06:06:20;;;;;;;13.00;9.07;;;12.10;99.90;;;;;;5038265;28;21039;-69
2021/05/19 06:08:47;;;;;;;15.33;9.37;;;12.10;99.90;;;;;;5041928;28;20483;-69
2021/05/19 06:11:13;;;;;;;16.60;8.13;;;12.10;99.90;;;;;;5040764;28;20844;-70
2021/05/19 06:13:40;;;;;;;13.60;9.50;;;12.20;99.90;;;;;;5041863;28;20571;-70
2021/05/19 06:16:07;;;;;;;10.17;7.87;;;12.20;99.90;;;;;;5052788;28;20828;-69
2021/05/19 06:18:33;;;;;;;10.17;6.93;;;12.10;99.90;;;;;;5038539;28;20483;-70
2021/05/19 06:21:00;;;;;;;12.97;9.17;;;12.30;99.90;;;;;;5046830;28;20513;-70
2021/05/19 06:23:26;;;;;;;13.70;8.17;;;12.30;99.90;;;;;;5041109;28;20507;-70
2021/05/19 06:25:52;;;;;;;13.20;7.30;;;12.40;99.90;;;;;;5050961;28;20550;-70
2021/05/19 06:28:19;;;;;;;12.67;6.27;;;12.30;99.90;;;;;;5054490;28;20548;-70
2021/05/19 06:30:46;;;;;;;10.13;7.30;;;12.40;99.90;;;;;;5040889;28;20464;-71
2021/05/19 06:33:13;;;;;;;15.80;7.30;;;12.50;99.90;;;;;;5043878;28;20491;-71
2021/05/19 06:35:39;;;;;;;10.83;7.33;;;12.60;99.90;;;;;;5041410;28;20547;-71
2021/05/19 06:38:06;;;;;;;19.33;8.57;;;12.70;99.90;;;;;;5040701;28;20463;-70
2021/05/19 06:40:33;;;;;;;9.17;7.13;;;12.70;99.90;;;;;;5044432;28;20490;-71
2021/05/19 06:42:59;;;;;;;11.77;8.03;;;12.70;99.90;;;;;;5041465;28;20487;-71
2021/05/19 06:45:26;;;;;;;9.60;6.30;;;12.70;99.90;;;;;;5043785;28;20466;-70
2021/05/19 06:47:53;;;;;;;13.43;7.10;;;12.90;99.90;;;;;;5047546;28;20468;-70
2021/05/19 06:50:20;;;;;;;10.40;6.73;;;12.80;99.90;;;;;;5039687;28;20488;-71
2021/05/19 06:52:46;;;;;;;13.93;6.70;;;13.00;99.90;;;;;;5039487;28;20948;-70
2021/05/19 06:55:14;;;;;;;11.60;5.90;;;13.20;99.90;;;;;;5050327;28;20466;-70
2021/05/19 06:57:40;;;;;;;7.43;5.37;;;13.40;99.90;;;;;;5039678;28;20514;-71
2021/05/19 07:00:08;;;;;;;10.83;6.57;;;13.60;99.90;;;;;;5044845;28;20487;-70
2021/05/19 07:02:37;;;;;;;10.10;7.23;;;13.40;99.90;;;;;;5037268;28;20503;-70
2021/05/19 07:05:05;;;;;;;10.97;6.97;;;13.40;99.90;;;;;;5056386;28;21380;-71
2021/05/19 07:07:32;;;;;;;9.37;6.00;;;13.50;99.90;;;;;;5047699;28;20549;-70
2021/05/19 07:09:58;;;;;;;6.60;4.33;;;13.90;99.90;;;;;;5043475;28;20514;-71
2021/05/19 07:12:25;;;;;;;9.50;6.30;;;14.00;99.90;;;;;;5047429;28;20470;-70
2021/05/19 07:14:54;;;;;;;8.10;5.20;;;14.20;99.90;;;;;;5040351;28;20968;-70
2021/05/19 07:17:21;;;;;;;6.70;4.40;;;14.30;99.90;;;;;;5040701;28;20459;-70
2021/05/19 07:19:47;;;;;;;7.77;5.10;;;14.30;99.90;;;;;;5053526;28;20874;-70
2021/05/19 07:22:14;;;;;;;11.33;6.07;;;14.40;99.90;;;;;;5043554;28;20467;-71
2021/05/19 07:24:41;;;;;;;6.37;4.70;;;14.70;99.90;;;;;;5039541;28;20519;-70
2021/05/19 07:27:07;;;;;;;7.80;6.17;;;14.70;99.90;;;;;;5041056;28;20458;-70
2021/05/19 07:29:34;;;;;;;9.30;4.70;;;14.70;99.90;;;;;;5057134;28;20498;-70
2021/05/19 07:32:02;;;;;;;6.23;4.93;;;14.90;99.90;;;;;;5043638;28;20894;-71
2021/05/19 07:34:28;;;;;;;6.43;4.57;;;15.00;99.90;;;;;;5044677;28;20490;-70
2021/05/19 07:36:55;;;;;;;9.90;6.20;;;14.90;99.90;;;;;;5058910;28;20489;-70
2021/05/19 07:39:22;;;;;;;8.63;6.13;;;14.80;99.90;;;;;;5046254;28;20551;-70
2021/05/19 07:41:49;;;;;;;6.87;4.77;;;14.70;99.90;;;;;;5050234;28;20455;-71
2021/05/19 07:44:15;;;;;;;12.13;5.40;;;14.50;99.90;;;;;;5039706;28;20484;-71
2021/05/19 07:46:42;;;;;;;5.93;4.23;;;14.50;99.90;;;;;;5046208;28;20486;-70
2021/05/19 07:49:08;;;;;;;5.30;4.17;;;14.60;99.90;;;;;;5045132;28;20510;-71
2021/05/19 07:51:35;;;;;;;7.07;4.27;;;14.70;99.90;;;;;;5045328;28;20456;-71
2021/05/19 07:54:03;;;;;;;8.53;5.87;;;14.70;99.90;;;;;;5047410;28;20589;-71
2021/05/19 07:56:35;;;;;;;6.20;4.43;;;14.80;99.90;;;;;;5052038;28;20543;-71
2021/05/19 07:59:06;;;;;;;7.00;4.83;;;15.40;99.90;;;;;;5051709;28;20463;-71
2021/05/19 08:02:01;;;;;;;6.43;4.23;;;16.40;99.90;;;;;;5043608;28;20456;-71
2021/05/19 08:04:29;;;;;;;6.87;4.90;;;17.50;99.90;;;;;;5041006;28;20483;-70
2021/05/19 08:06:55;;;;;;;4.80;3.97;;;18.00;99.90;;;;;;5046786;28;20486;-71
2021/05/19 08:09:22;;;;;;;6.83;3.60;;;18.30;99.90;;;;;;5046501;28;21010;-70
2021/05/19 08:11:49;;;;;;;7.90;3.60;;;18.10;99.90;;;;;;5050736;28;20473;-70
2021/05/19 08:14:17;;;;;;;5.93;3.63;;;18.20;99.90;;;;;;5039648;28;20657;-70
2021/05/19 08:16:44;;;;;;;3.10;2.87;;;18.10;99.90;;;;;;5049717;28;20511;-71
2021/05/19 08:19:10;;;;;;;5.40;2.93;;;18.20;99.90;;;;;;5045231;28;20470;-70
2021/05/19 08:21:38;;;;;;;2.37;2.17;;;18.00;99.90;;;;;;5046459;28;21018;-70
2021/05/19 08:24:05;;;;;;;3.47;2.27;;;17.90;99.90;;;;;;5040599;28;20507;-70
2021/05/19 08:26:31;;;;;;;5.13;2.90;;;18.10;99.90;;;;;;5040414;28;20967;-70
2021/05/19 08:28:59;;;;;;;6.40;2.93;;;18.70;99.90;;;;;;5048556;28;20466;-70
2021/05/19 08:31:25;;;;;;;3.10;2.80;;;19.10;99.90;;;;;;5048687;28;20903;-70
2021/05/19 08:33:52;;;;;;;3.53;3.07;;;19.40;99.90;;;;;;5043918;28;20515;-71
2021/05/19 08:36:18;;;;;;;7.90;3.60;;;19.10;99.90;;;;;;5046964;28;20459;-70
2021/05/19 08:38:45;;;;;;;4.27;3.20;;;18.70;99.90;;;;;;5047203;28;20488;-71
2021/05/19 08:41:12;;;;;;;3.23;3.03;;;18.50;99.90;;;;;;5050399;28;20481;-70
2021/05/19 08:43:39;;;;;;;6.40;3.70;;;18.10;99.90;;;;;;5047810;28;21620;-70
2021/05/19 08:46:07;;;;;;;4.20;3.80;;;17.80;99.90;;;;;;5034426;28;20519;-70
2021/05/19 08:48:34;;;;;;;2.83;2.50;;;17.40;99.90;;;;;;5048916;28;20459;-70
2021/05/19 08:51:01;;;;;;;3.50;3.20;;;17.20;99.90;;;;;;5043285;28;20612;-70
2021/05/19 08:53:28;;;;;;;4.47;2.80;;;17.10;99.90;;;;;;5041949;28;20479;-70
2021/05/19 08:55:55;;;;;;;5.73;4.23;;;17.30;99.90;;;;;;5035993;28;20460;-70
2021/05/19 08:58:22;;;;;;;4.60;2.13;;;17.50;99.90;;;;;;5041862;28;20462;-68
2021/05/19 09:00:49;;;;;;;4.33;2.93;;;17.70;99.90;;;;;;5048583;28;20455;-69
2021/05/19 09:03:17;;;;;;;4.13;1.80;;;17.60;99.90;;;;;;5040118;28;20896;-69
2021/05/19 09:05:45;;;;;;;1.40;1.17;;;16.90;99.90;;;;;;5038440;28;20460;-69
2021/05/19 09:08:14;;;;;;;4.07;1.73;;;16.80;99.90;;;;;;5042925;28;20494;-69
2021/05/19 09:10:42;;;;;;;2.10;1.67;;;16.70;99.90;;;;;;5041022;28;20551;-69
2021/05/19 09:13:28;;;;;;;4.87;1.87;;;16.70;99.90;;;;;;5039393;28;20558;-70
2021/05/19 09:15:55;;;;;;;2.50;1.80;;;16.90;99.90;;;;;;5038527;28;20452;-69
2021/05/19 09:18:22;;;;;;;3.40;2.23;;;16.70;99.90;;;;;;5052402;28;20460;-69
2021/05/19 09:20:50;;;;;;;3.20;1.80;;;16.60;99.90;;;;;;5035192;28;20460;-69
2021/05/19 09:23:19;;;;;;;6.10;2.03;;;16.60;99.90;;;;;;5039838;28;20515;-69
2021/05/19 09:26:03;;;;;;;2.97;2.07;;;16.40;99.90;;;;;;5040648;28;20488;-69
2021/05/19 09:28:30;;;;;;;2.33;1.83;;;17.20;99.90;;;;;;5049591;28;20450;-70
2021/05/19 09:30:58;;;;;;;2.37;1.97;;;18.40;99.90;;;;;;5045560;28;20479;-69
2021/05/19 09:33:28;;;;;;;1.70;1.50;;;19.10;99.90;;;;;;5045115;28;20514;-70
2021/05/19 09:36:14;;;;;;;1.87;1.40;;;19.60;99.90;;;;;;5045522;28;20482;-69
2021/05/19 09:38:40;;;;;;;2.60;1.60;;;19.90;99.90;;;;;;5038942;28;20464;-69
2021/05/19 09:41:21;;;;;;;6.73;1.80;;;20.90;99.90;;;;;;5051623;28;20464;-69
2021/05/19 09:43:52;;;;;;;7.90;1.80;;;21.40;99.90;;;;;;5040053;28;20564;-69
2021/05/19 09:46:22;;;;;;;3.73;2.20;;;21.00;99.90;;;;;;5043332;28;20926;-70
2021/05/19 09:49:13;;;;;;;5.17;2.27;;;20.40;99.90;;;;;;5043609;28;20468;-69
2021/05/19 09:51:40;;;;;;;2.07;1.40;;;19.60;99.90;;;;;;5046333;28;20448;-69
2021/05/19 09:54:27;;;;;;;3.30;2.37;;;19.10;99.90;;;;;;5042455;28;20483;-70
2021/05/19 09:56:55;;;;;;;2.47;1.60;;;18.80;99.90;;;;;;5045303;28;20558;-69
2021/05/19 09:59:21;;;;;;;5.97;1.50;;;17.90;99.90;;;;;;5048161;28;20831;-69
2021/05/19 10:01:49;;;;;;;3.97;3.13;;;17.80;99.90;;;;;;5043142;28;20459;-69
2021/05/19 10:04:18;;;;;;;2.17;1.40;;;17.70;99.90;;;;;;5042469;28;20868;-71
2021/05/19 10:06:45;;;;;;;10.07;2.30;;;17.40;99.90;;;;;;5042467;28;21161;-69
2021/05/19 10:09:12;;;;;;;3.10;2.27;;;17.10;99.90;;;;;;5048558;28;20462;-69
2021/05/19 10:11:38;;;;;;;4.40;1.90;;;17.10;99.90;;;;;;5049825;28;20483;-70
2021/05/19 10:14:09;;;;;;;2.73;2.27;;;17.70;99.90;;;;;;5042814;28;20563;-70
2021/05/19 10:16:36;;;;;;;3.20;1.97;;;17.70;99.90;;;;;;5045352;28;20987;-70
2021/05/19 10:19:04;;;;;;;1.80;1.37;;;17.70;99.90;;;;;;5043652;28;20544;-69
2021/05/19 10:21:33;;;;;;;1.77;1.23;;;17.60;99.90;;;;;;5047693;28;21089;-69
2021/05/19 10:24:03;;;;;;;3.10;1.40;;;17.30;99.90;;;;;;5042334;28;20510;-69
2021/05/19 10:26:32;;;;;;;11.10;2.80;;;17.00;99.90;;;;;;5046633;28;20459;-68
2021/05/19 10:28:59;;;;;;;1.70;1.53;;;16.60;99.90;;;;;;5043671;28;20566;-71
2021/05/19 10:31:28;;;;;;;2.50;1.90;;;16.60;99.90;;;;;;5047314;28;20944;-69
2021/05/19 10:33:56;;;;;;;4.00;1.67;;;16.60;99.90;;;;;;5043043;28;20549;-70
2021/05/19 10:36:47;;;;;;;3.37;2.47;;;16.40;99.90;;;;;;5038182;28;20479;-69
2021/05/19 10:39:27;;;;;;;1.80;1.40;;;16.70;99.90;;;;;;5048488;28;20455;-70
2021/05/19 10:41:56;;;;;;;2.03;1.33;;;17.50;99.90;;;;;;5049426;28;20514;-70
2021/05/19 10:44:26;;;;;;;6.97;2.03;;;18.60;99.90;;;;;;5041609;28;20479;-70
2021/05/19 10:46:58;;;;;;;2.33;1.17;;;19.10;99.90;;;;;;5053461;28;20509;-70
2021/05/19 10:50:02;;;;;;;5.73;1.20;;;18.50;99.90;;;;;;5040786;28;20510;-70
2021/05/19 10:52:38;;;;;;;3.03;1.57;;;19.00;99.90;;;;;;5044091;28;20486;-70
2021/05/19 10:57:52;;;;;;;1.47;1.10;;;21.30;99.90;;;;;;5046471;28;20961;-70
2021/05/19 11:00:22;;;;;;;3.97;1.80;;;21.20;99.90;;;;;;5050360;28;20928;-70
2021/05/19 11:03:10;;;;;;;3.00;1.63;;;20.30;99.90;;;;;;5044294;28;20471;-70
2021/05/19 11:05:38;;;;;;;1.50;1.30;;;19.40;99.90;;;;;;5047904;28;20447;-70
2021/05/19 11:08:23;;;;;;;2.00;1.30;;;18.50;99.90;;;;;;5049275;28;20458;-70
2021/05/19 11:10:53;;;;;;;1.53;1.10;;;18.00;99.90;;;;;;5046844;28;20475;-69
2021/05/19 11:13:22;;;;;;;1.80;1.30;;;18.00;99.90;;;;;;5044455;28;20505;-69
2021/05/19 11:15:59;;;;;;;2.30;1.40;;;17.80;99.90;;;;;;5045675;28;20494;-71
2021/05/19 11:18:45;;;;;;;4.37;1.80;;;17.90;99.90;;;;;;5049473;28;20447;-71
2021/05/19 11:21:15;;;;;;;2.37;1.47;;;18.20;99.90;;;;;;5048327;28;20711;-72
2021/05/19 11:23:42;;;;;;;2.67;1.50;;;19.50;99.90;;;;;;5049095;28;20472;-70
2021/05/19 11:26:10;;;;;;;1.90;1.30;;;20.40;99.90;;;;;;5049313;28;20462;-70
2021/05/19 11:28:37;;;;;;;2.47;1.30;;;20.30;99.90;;;;;;5049301;28;21705;-70
2021/05/19 11:31:11;;;;;;;6.43;2.10;;;19.90;99.90;;;;;;5049790;28;20568;-70
2021/05/19 11:33:51;;;;;;;6.40;1.67;;;19.50;99.90;;;;;;5044302;28;21021;-70
2021/05/19 11:36:36;;;;;;;2.77;1.77;;;18.40;99.90;;;;;;5047834;28;20455;-70
2021/05/19 11:39:26;;;;;;;5.30;2.10;;;18.10;99.90;;;;;;5046078;28;20787;-69
2021/05/19 11:41:53;;;;;;;2.10;1.50;;;18.10;99.90;;;;;;5047793;28;20455;-69
2021/05/19 11:44:31;;;;;;;4.40;2.60;;;18.00;99.90;;;;;;5041791;28;20559;-69
2021/05/19 11:46:58;;;;;;;4.80;2.93;;;17.90;99.90;;;;;;5047644;28;20553;-70
2021/05/19 11:49:24;;;;;;;4.97;2.10;;;18.00;99.90;;;;;;5047877;28;20543;-70
2021/05/19 11:51:51;;;;;;;2.40;2.20;;;18.00;99.90;;;;;;5043984;28;20460;-70
2021/05/19 11:54:18;;;;;;;8.60;2.00;;;18.20;99.90;;;;;;5040352;28;20490;-69
2021/05/19 11:56:46;;;;;;;8.00;1.93;;;18.50;99.90;;;;;;5049511;28;20483;-70
2021/05/19 11:59:14;;;;;;;5.50;2.00;;;19.10;99.90;;;;;;5046381;28;20465;-70
2021/05/19 12:01:53;;;;;;;7.80;2.17;;;20.10;99.90;;;;;;5048571;28;20498;-69
2021/05/19 12:04:20;;;;;;;4.63;1.93;;;20.20;99.90;;;;;;5045104;28;20471;-71
2021/05/19 12:06:47;;;;;;;4.57;2.87;;;20.00;99.90;;;;;;5048279;28;20473;-70
2021/05/19 12:09:14;;;;;;;7.80;2.63;;;19.40;99.90;;;;;;5043333;28;20463;-70
2021/05/19 12:11:42;;;;;;;1.87;1.40;;;18.90;99.90;;;;;;5042875;28;20506;-70
2021/05/19 12:14:10;;;;;;;3.43;2.40;;;18.70;99.90;;;;;;5042565;28;20559;-70
2021/05/19 12:16:38;;;;;;;2.20;1.97;;;18.90;99.90;;;;;;5048041;28;20785;-70
2021/05/19 12:19:08;;;;;;;7.03;1.60;;;19.50;99.90;;;;;;5043920;28;20548;-70
2021/05/19 12:21:36;;;;;;;3.93;1.90;;;19.40;99.90;;;;;;5045300;28;20479;-70
2021/05/19 12:24:04;;;;;;;2.40;2.20;;;19.30;99.90;;;;;;5045912;28;20903;-69
2021/05/19 12:26:31;;;;;;;6.87;2.47;;;19.10;99.90;;;;;;5046639;28;20933;-70
2021/05/19 12:28:59;;;;;;;3.60;3.13;;;19.60;99.90;;;;;;5047946;28;21038;-70
2021/05/19 12:31:30;;;;;;;3.60;1.60;;;21.40;99.90;;;;;;5047605;28;20463;-70
2021/05/19 12:33:57;;;;;;;2.47;1.90;;;22.80;99.90;;;;;;5037658;28;20502;-71
2021/05/19 12:36:26;;;;;;;3.27;1.57;;;23.50;96.00;;;;;;5048130;28;20971;-70
2021/05/19 12:38:54;;;;;;;3.47;2.37;;;23.50;95.90;;;;;;5046347;28;20460;-70
2021/05/19 12:41:52;;;;;;;4.03;2.67;;;24.10;93.40;;;;;;5044010;28;20455;-69
2021/05/19 12:44:25;;;;;;;4.20;1.97;;;24.00;96.70;;;;;;4979843;28;20478;-70
2021/05/19 12:47:00;;;;;;;6.13;2.20;;;23.60;95.30;;;;;;5035211;28;20491;-71
2021/05/19 12:49:26;;;;;;;6.33;5.23;;;22.70;94.60;;;;;;5036460;28;20459;-69
2021/05/19 12:51:55;;;;;;;2.80;1.63;;;22.70;94.70;;;;;;5046859;28;20538;-70
2021/05/19 12:54:28;;;;;;;3.07;1.87;;;22.70;93.20;;;;;;5041276;28;20972;-71